FKYS/NSI METAR and TAF weather

Enter ICAO airport designator
Station Type Date Time Source
FKYS METAR 2020/11/27 14:00 UTC NOAA

FKYS 271400Z 05005KT 010V090 8000 BKN020 30/20 Q1013 NOSIG


Station Type Date Time Source
FKYS Decoded METAR 2020/11/27 14:00 UTC NOAA

Yaounde, Cameroon (FKYS) 03-50N 011-31E 760M
Nov 27, 2020 - 09:00 AM EST / 2020.11.27 1400 UTC
Wind: from the NE (050 degrees) at 6 MPH (5 KT) (direction variable):0
Visibility: 4 mile(s):0
Sky conditions: mostly cloudy
Temperature: 86 F (30 C)
Dew Point: 68 F (20 C)
Relative Humidity: 55%
Pressure (altimeter): 29.91 in. Hg (1013 hPa)
ob: FKYS 271400Z 05005KT 010V090 8000 BKN020 30/20 Q1013 NOSIG
cycle: 14

Station Type Date Time Source
FKYS TAF 2020/11/27 12:25 UTC NOAA

TAF FKYS 271100Z 2712/2812 24005KT 9999 BKN020
BECMG 2720/2722 BKN006 PROB30 2801/2806 3000 BR

Example: see airport list